createdAt,value
2022-12-03T00:00:35.204Z,95.77
2022-12-03T00:03:01.930Z,96.12
2022-12-03T00:05:28.552Z,95.90
2022-12-03T00:07:55.046Z,95.96
2022-12-03T00:10:21.491Z,95.34
2022-12-03T00:12:48.083Z,95.95
2022-12-03T00:15:14.536Z,95.70
2022-12-03T00:17:40.989Z,95.05
2022-12-03T00:20:09.335Z,93.93
2022-12-03T00:22:35.862Z,94.36
2022-12-03T00:25:02.899Z,93.87
2022-12-03T00:27:29.388Z,94.15
2022-12-03T00:29:55.869Z,94.30
2022-12-03T00:32:22.300Z,94.22
2022-12-03T00:34:48.726Z,94.16
2022-12-03T00:37:15.144Z,93.10
2022-12-03T00:39:41.587Z,93.66
2022-12-03T00:42:08.151Z,93.89
2022-12-03T00:44:34.727Z,94.21
2022-12-03T00:47:02.860Z,94.31
2022-12-03T00:49:29.436Z,94.42
2022-12-03T00:51:55.862Z,94.63
2022-12-03T00:54:26.823Z,93.89
2022-12-03T00:56:56.624Z,94.45
2022-12-03T00:59:23.057Z,94.68
2022-12-03T01:01:49.519Z,95.44
2022-12-03T01:04:16.209Z,95.22
2022-12-03T01:06:42.639Z,94.84
2022-12-03T01:09:09.468Z,94.09
2022-12-03T01:11:38.800Z,93.00
2022-12-03T01:14:07.288Z,93.70
2022-12-03T01:16:34.329Z,93.13
2022-12-03T01:19:00.885Z,93.17
2022-12-03T01:21:27.617Z,92.70
2022-12-03T01:23:54.152Z,93.21
2022-12-03T01:26:20.668Z,92.74
2022-12-03T01:28:47.120Z,92.21
2022-12-03T01:31:32.752Z,91.85
2022-12-03T01:34:00.191Z,92.36
2022-12-03T01:36:27.242Z,92.76
2022-12-03T01:38:53.652Z,92.28
2022-12-03T01:41:22.305Z,92.47
2022-12-03T01:43:50.035Z,92.55
2022-12-03T01:46:21.143Z,92.83
2022-12-03T01:48:49.567Z,93.11
2022-12-03T01:51:16.216Z,93.70
2022-12-03T01:53:43.851Z,93.80
2022-12-03T01:56:15.619Z,94.34
2022-12-03T01:58:43.404Z,94.40
2022-12-03T02:01:16.468Z,94.64
2022-12-03T02:03:44.366Z,94.77
2022-12-03T02:06:21.550Z,95.24
2022-12-03T02:08:49.099Z,95.26
2022-12-03T02:11:25.379Z,94.46
2022-12-03T02:13:55.735Z,94.53
2022-12-03T02:16:23.727Z,94.38
2022-12-03T02:18:50.298Z,94.47
2022-12-03T02:21:26.139Z,94.30
2022-12-03T02:24:15.076Z,93.69
2022-12-03T02:26:41.534Z,94.23
2022-12-03T02:29:08.092Z,93.73
2022-12-03T02:31:34.809Z,94.06
2022-12-03T02:34:06.722Z,93.96
2022-12-03T02:36:34.241Z,94.57
2022-12-03T02:39:02.005Z,94.16
2022-12-03T02:41:47.205Z,93.74
2022-12-03T02:44:13.791Z,93.60
2022-12-03T02:46:40.474Z,93.19
2022-12-03T02:49:07.727Z,92.74
2022-12-03T02:51:34.871Z,92.94
2022-12-03T02:54:03.129Z,93.36
2022-12-03T02:56:32.762Z,93.89
2022-12-03T02:59:03.254Z,93.55
2022-12-03T03:01:29.915Z,93.98
2022-12-03T03:03:57.406Z,93.82
2022-12-03T03:06:24.301Z,94.03
2022-12-03T03:08:51.384Z,94.52
2022-12-03T03:11:17.865Z,94.75
2022-12-03T03:14:03.055Z,95.09
2022-12-03T03:16:29.600Z,95.49
2022-12-03T03:18:56.096Z,95.35
2022-12-03T03:21:22.542Z,94.86
2022-12-03T03:23:48.953Z,94.33
2022-12-03T03:26:16.619Z,94.02
2022-12-03T03:28:46.410Z,94.22
2022-12-03T03:31:15.921Z,94.80
2022-12-03T03:33:45.108Z,94.08
2022-12-03T03:36:13.021Z,94.52
2022-12-03T03:38:40.967Z,94.57
2022-12-03T03:41:09.652Z,95.33
2022-12-03T03:43:38.879Z,94.51
2022-12-03T03:46:06.859Z,94.37
2022-12-03T03:48:34.603Z,94.54
2022-12-03T03:51:03.693Z,94.37
2022-12-03T03:53:30.861Z,94.68
2022-12-03T03:55:57.425Z,94.53
2022-12-03T03:58:23.976Z,94.17
2022-12-03T04:00:51.422Z,93.74
2022-12-03T04:03:17.839Z,93.47
2022-12-03T04:05:44.355Z,93.38
2022-12-03T04:08:10.821Z,93.52
2022-12-03T04:10:56.045Z,93.73
2022-12-03T04:13:22.515Z,93.40
2022-12-03T04:15:48.959Z,93.29
2022-12-03T04:18:34.061Z,94.02
2022-12-03T04:21:19.626Z,93.42
2022-12-03T04:23:46.123Z,92.59
2022-12-03T04:26:31.094Z,92.82
2022-12-03T04:28:57.562Z,92.96
2022-12-03T04:31:42.760Z,93.57
2022-12-03T04:34:28.321Z,93.75
2022-12-03T04:36:55.394Z,93.50
2022-12-03T04:39:21.913Z,93.28
2022-12-03T04:41:48.370Z,93.27
2022-12-03T04:44:33.416Z,93.69
2022-12-03T04:47:00.618Z,93.33
2022-12-03T04:49:27.039Z,93.48
2022-12-03T04:51:53.495Z,93.16
2022-12-03T04:54:21.262Z,93.96
2022-12-03T04:56:47.706Z,93.79
2022-12-03T04:59:16.432Z,94.02
2022-12-03T05:01:44.044Z,94.00
2022-12-03T05:04:11.632Z,94.05
2022-12-03T05:06:38.274Z,93.93
2022-12-03T05:09:06.307Z,93.92
2022-12-03T05:11:33.283Z,94.20
2022-12-03T05:13:59.741Z,94.45
2022-12-03T05:16:28.885Z,93.82
2022-12-03T05:18:55.365Z,94.14
2022-12-03T05:21:21.980Z,94.40
2022-12-03T05:23:48.754Z,94.11
2022-12-03T05:26:15.570Z,93.81
2022-12-03T05:28:41.995Z,93.59
2022-12-03T05:31:08.754Z,94.27
2022-12-03T05:33:39.496Z,93.73
2022-12-03T05:36:09.549Z,93.78
2022-12-03T05:38:36.003Z,94.30
2022-12-03T05:41:03.324Z,94.12
2022-12-03T05:43:29.751Z,93.94
2022-12-03T05:45:56.216Z,93.69
2022-12-03T05:48:22.690Z,94.05
2022-12-03T05:50:49.082Z,93.63
2022-12-03T05:53:17.195Z,93.52
2022-12-03T05:55:43.593Z,93.39
2022-12-03T05:58:10.053Z,93.17
2022-12-03T06:00:42.392Z,92.97
2022-12-03T06:03:10.575Z,92.81
2022-12-03T06:05:37.519Z,93.17
2022-12-03T06:08:04.292Z,93.03
2022-12-03T06:10:30.852Z,92.63
2022-12-03T06:12:57.420Z,91.87
2022-12-03T06:15:23.910Z,91.97
2022-12-03T06:17:50.923Z,92.29
2022-12-03T06:20:19.539Z,92.00
2022-12-03T06:22:46.343Z,91.48
2022-12-03T06:25:13.918Z,92.25
2022-12-03T06:27:40.339Z,92.14
2022-12-03T06:30:08.900Z,92.11
2022-12-03T06:32:35.732Z,91.21
2022-12-03T06:35:02.976Z,91.18
2022-12-03T06:37:29.582Z,91.09
2022-12-03T06:39:55.987Z,91.75
2022-12-03T06:42:22.499Z,90.93
2022-12-03T06:44:48.937Z,90.90
2022-12-03T06:47:15.392Z,91.24
2022-12-03T06:49:41.876Z,91.09
2022-12-03T06:52:08.338Z,91.21
2022-12-03T06:54:34.912Z,90.87
2022-12-03T06:57:02.006Z,91.50
2022-12-03T06:59:28.419Z,90.77
2022-12-03T07:01:54.966Z,90.80
2022-12-03T07:04:21.508Z,91.05
2022-12-03T07:06:47.909Z,90.56
2022-12-03T07:09:16.876Z,90.53
2022-12-03T07:11:43.391Z,90.77
2022-12-03T07:14:11.335Z,90.80
2022-12-03T07:16:39.113Z,91.15
2022-12-03T07:19:06.689Z,91.11
2022-12-03T07:21:33.277Z,91.07
2022-12-03T07:23:59.986Z,91.08
2022-12-03T07:26:26.426Z,91.00
2022-12-03T07:28:53.062Z,91.32
2022-12-03T07:31:19.572Z,91.46
2022-12-03T07:33:46.248Z,91.38
2022-12-03T07:36:12.833Z,92.18
2022-12-03T07:38:39.459Z,91.69
2022-12-03T07:41:06.046Z,91.38
2022-12-03T07:43:33.092Z,92.13
2022-12-03T07:45:59.704Z,91.93
2022-12-03T07:48:27.145Z,91.75
2022-12-03T07:50:54.436Z,91.62
2022-12-03T07:53:21.044Z,91.27
2022-12-03T07:55:47.521Z,90.36
2022-12-03T07:58:13.975Z,90.56
2022-12-03T08:00:40.504Z,90.24
2022-12-03T08:03:07.161Z,90.01
2022-12-03T08:05:33.666Z,90.14
2022-12-03T08:08:01.096Z,90.02
2022-12-03T08:10:27.864Z,89.62
2022-12-03T08:12:58.067Z,88.97
2022-12-03T08:15:27.729Z,88.85
2022-12-03T08:18:02.770Z,89.02
2022-12-03T08:20:34.641Z,88.82
2022-12-03T08:23:06.642Z,88.93
2022-12-03T08:25:33.561Z,88.88
2022-12-03T08:28:15.451Z,88.63
2022-12-03T08:30:43.602Z,88.92
2022-12-03T08:33:35.881Z,88.63
2022-12-03T08:36:15.895Z,89.07
2022-12-03T08:38:49.223Z,88.66
2022-12-03T08:41:16.106Z,88.85
2022-12-03T08:43:43.775Z,88.83
2022-12-03T08:46:18.877Z,88.63
2022-12-03T08:48:48.942Z,88.91
2022-12-03T08:51:25.516Z,88.88
2022-12-03T08:54:01.484Z,88.72
2022-12-03T08:56:30.602Z,89.25
2022-12-03T08:59:25.291Z,88.90
2022-12-03T09:01:53.471Z,88.83
2022-12-03T09:04:35.856Z,89.71
2022-12-03T09:07:03.208Z,89.24
2022-12-03T09:09:30.061Z,89.46
2022-12-03T09:11:56.674Z,89.25
2022-12-03T09:14:23.554Z,89.29
2022-12-03T09:16:55.267Z,88.90
2022-12-03T09:19:26.534Z,89.09
2022-12-03T09:21:53.848Z,88.48
2022-12-03T09:24:20.530Z,89.00
2022-12-03T09:26:47.059Z,88.20
2022-12-03T09:29:13.517Z,88.89
2022-12-03T09:31:40.448Z,88.89
2022-12-03T09:34:07.857Z,88.50
2022-12-03T09:36:34.883Z,88.50
2022-12-03T09:39:01.414Z,89.08
2022-12-03T09:41:28.648Z,89.26
2022-12-03T09:44:05.158Z,88.78
2022-12-03T09:46:34.006Z,89.25
2022-12-03T09:49:02.250Z,89.19
2022-12-03T09:51:33.486Z,88.65
2022-12-03T09:54:03.192Z,88.17
2022-12-03T09:56:30.007Z,87.94
2022-12-03T09:58:56.471Z,87.97
2022-12-03T10:01:25.008Z,88.00
2022-12-03T10:03:54.390Z,88.40
2022-12-03T10:06:23.771Z,88.48
2022-12-03T10:08:53.515Z,88.11
2022-12-03T10:11:22.416Z,88.44
2022-12-03T10:13:52.647Z,87.74
2022-12-03T10:16:20.841Z,88.01
2022-12-03T10:18:51.437Z,88.34
2022-12-03T10:21:19.345Z,88.00
2022-12-03T10:23:48.465Z,87.57
2022-12-03T10:26:19.260Z,88.30
2022-12-03T10:28:47.441Z,87.35
2022-12-03T10:31:15.286Z,87.13
2022-12-03T10:33:45.110Z,87.58
2022-12-03T10:36:20.514Z,87.30
2022-12-03T10:39:19.957Z,86.88
2022-12-03T10:41:46.505Z,86.05
2022-12-03T10:44:21.237Z,86.61
2022-12-03T10:47:06.138Z,86.89
2022-12-03T10:49:32.832Z,87.31
2022-12-03T10:51:59.396Z,87.03
2022-12-03T10:54:27.363Z,87.37
2022-12-03T10:56:53.997Z,86.95
2022-12-03T10:59:27.135Z,87.18
2022-12-03T11:01:53.783Z,86.25
2022-12-03T11:04:23.399Z,86.96
2022-12-03T11:06:50.384Z,86.01
2022-12-03T11:09:25.011Z,86.18
2022-12-03T11:11:52.441Z,85.70
2022-12-03T11:14:54.078Z,86.14
2022-12-03T11:17:42.703Z,86.22
2022-12-03T11:20:34.007Z,86.92
2022-12-03T11:23:00.448Z,86.38
2022-12-03T11:25:27.145Z,85.78
2022-12-03T11:28:12.269Z,86.46
2022-12-03T11:30:51.098Z,86.15
2022-12-03T11:33:26.531Z,86.00
2022-12-03T11:36:05.284Z,85.77
2022-12-03T11:38:37.876Z,85.77
2022-12-03T11:41:16.360Z,86.01
2022-12-03T11:43:57.616Z,85.90
2022-12-03T11:46:28.622Z,85.95
2022-12-03T11:48:59.152Z,86.52
2022-12-03T11:51:28.156Z,85.90
2022-12-03T11:53:57.634Z,86.18
2022-12-03T11:56:29.379Z,86.16
2022-12-03T11:59:03.972Z,85.91
2022-12-03T12:01:39.049Z,86.18
2022-12-03T12:04:07.453Z,86.54
2022-12-03T12:06:47.467Z,86.87
2022-12-03T12:09:47.545Z,86.07
2022-12-03T12:12:38.874Z,86.43
2022-12-03T12:15:34.075Z,86.44
2022-12-03T12:18:38.284Z,86.17
2022-12-03T12:21:39.787Z,85.86
2022-12-03T12:24:31.213Z,86.47
2022-12-03T12:26:59.623Z,86.14
2022-12-03T12:29:26.158Z,86.25
2022-12-03T12:31:59.864Z,86.70
2022-12-03T12:34:26.401Z,86.22
2022-12-03T12:36:57.426Z,85.51
2022-12-03T12:39:25.260Z,84.77
2022-12-03T12:41:51.738Z,84.95
2022-12-03T12:44:23.152Z,85.86
2022-12-03T12:46:52.506Z,85.14
2022-12-03T12:49:23.401Z,85.73
2022-12-03T12:51:50.543Z,84.91
2022-12-03T12:54:20.809Z,84.97
2022-12-03T12:56:50.158Z,85.05
2022-12-03T12:59:21.151Z,84.84
2022-12-03T13:01:49.937Z,85.26
2022-12-03T13:04:22.594Z,85.29
2022-12-03T13:06:53.045Z,85.73
2022-12-03T13:09:23.886Z,85.63
2022-12-03T13:12:03.986Z,85.58
2022-12-03T13:14:34.866Z,85.96
2022-12-03T13:17:10.815Z,85.45
2022-12-03T13:20:03.263Z,85.57
2022-12-03T13:22:27.678Z,85.60
2022-12-03T13:24:59.366Z,85.23
2022-12-03T13:27:29.632Z,85.90
2022-12-03T13:30:00.881Z,84.74
2022-12-03T13:32:31.685Z,84.63
2022-12-03T13:35:07.188Z,85.08
2022-12-03T13:37:34.092Z,84.88
2022-12-03T13:40:12.064Z,84.22
2022-12-03T13:42:38.588Z,84.88
2022-12-03T13:45:13.898Z,84.77
2022-12-03T13:47:42.112Z,85.13
2022-12-03T13:50:39.271Z,84.86
2022-12-03T13:53:11.553Z,86.00
2022-12-03T13:55:44.811Z,84.57
2022-12-03T13:58:11.308Z,85.00
2022-12-03T14:00:37.907Z,85.49
2022-12-03T14:03:05.031Z,85.85
2022-12-03T14:05:31.450Z,85.85
2022-12-03T14:08:01.586Z,85.62
2022-12-03T14:10:29.309Z,85.66
2022-12-03T14:12:56.266Z,85.99
2022-12-03T14:15:22.829Z,86.28
2022-12-03T14:17:49.334Z,86.67
2022-12-03T14:20:15.939Z,86.66
2022-12-03T14:22:42.346Z,86.39
2022-12-03T14:25:09.654Z,86.38
2022-12-03T14:27:36.425Z,86.92
2022-12-03T14:30:04.817Z,86.20
2022-12-03T14:32:31.799Z,86.48
2022-12-03T14:34:58.168Z,85.88
2022-12-03T14:37:24.650Z,86.60
2022-12-03T14:39:51.081Z,86.57
2022-12-03T14:42:18.239Z,86.12
2022-12-03T14:44:49.616Z,86.56
2022-12-03T14:47:19.270Z,86.09
2022-12-03T14:49:46.363Z,85.91
2022-12-03T14:52:13.054Z,85.73
2022-12-03T14:54:42.345Z,85.75
2022-12-03T14:57:11.375Z,86.10
2022-12-03T14:59:39.407Z,86.10
2022-12-03T15:02:06.249Z,86.30
2022-12-03T15:04:32.879Z,86.28
2022-12-03T15:06:59.531Z,86.14
2022-12-03T15:09:26.159Z,86.53
2022-12-03T15:11:52.566Z,85.85
2022-12-03T15:14:19.001Z,86.58
2022-12-03T15:16:45.452Z,86.71
2022-12-03T15:19:14.276Z,85.98
2022-12-03T15:21:40.763Z,86.44
2022-12-03T15:24:07.844Z,85.70
2022-12-03T15:26:34.289Z,85.58
2022-12-03T15:29:00.815Z,85.38
2022-12-03T15:31:27.452Z,85.87
2022-12-03T15:33:53.887Z,85.72
2022-12-03T15:36:20.332Z,85.26
2022-12-03T15:38:47.483Z,85.74
2022-12-03T15:41:34.203Z,85.77
2022-12-03T15:44:02.688Z,85.07
2022-12-03T15:46:31.166Z,85.08
2022-12-03T15:48:57.983Z,85.05
2022-12-03T15:51:25.221Z,85.59
2022-12-03T15:53:51.973Z,85.82
2022-12-03T15:56:18.509Z,85.05
2022-12-03T15:58:45.229Z,85.34
2022-12-03T16:01:13.543Z,85.86
2022-12-03T16:03:40.696Z,86.21
2022-12-03T16:06:07.708Z,85.90
2022-12-03T16:08:34.290Z,86.41
2022-12-03T16:11:00.961Z,85.69
2022-12-03T16:13:27.659Z,86.28
2022-12-03T16:15:54.217Z,86.11
2022-12-03T16:18:20.675Z,85.96
2022-12-03T16:20:47.105Z,85.85
2022-12-03T16:23:13.659Z,86.14
2022-12-03T16:25:40.407Z,86.50
2022-12-03T16:28:06.955Z,86.88
2022-12-03T16:30:33.976Z,86.16
2022-12-03T16:33:00.505Z,86.07
2022-12-03T16:35:28.163Z,86.53
2022-12-03T16:37:54.589Z,86.35
2022-12-03T16:40:21.068Z,86.61
2022-12-03T16:42:47.504Z,86.09
2022-12-03T16:45:40.541Z,86.17
2022-12-03T16:48:06.943Z,86.33
2022-12-03T16:50:33.739Z,86.41
2022-12-03T16:53:00.290Z,86.35
2022-12-03T16:55:27.402Z,86.43
2022-12-03T16:57:53.878Z,86.36
2022-12-03T17:00:21.844Z,86.52
2022-12-03T17:02:49.540Z,86.86
2022-12-03T17:05:16.219Z,86.91
2022-12-03T17:07:42.848Z,86.12
2022-12-03T17:10:10.064Z,86.57
2022-12-03T17:13:07.233Z,86.60
2022-12-03T17:15:24.283Z,86.30
2022-12-03T17:17:50.745Z,86.67
2022-12-03T17:20:17.858Z,86.63
2022-12-03T17:22:44.489Z,87.22
2022-12-03T17:25:11.410Z,87.20
2022-12-03T17:27:44.638Z,86.65
2022-12-03T17:30:12.968Z,86.59
2022-12-03T17:32:39.771Z,86.95
2022-12-03T17:35:06.787Z,87.03
2022-12-03T17:37:33.491Z,86.12
2022-12-03T17:40:00.174Z,85.81
2022-12-03T17:42:27.341Z,85.75
2022-12-03T17:44:53.746Z,86.18
2022-12-03T17:47:24.067Z,85.99
2022-12-03T17:49:50.564Z,86.71
2022-12-03T17:52:17.117Z,86.46
2022-12-03T17:55:09.039Z,86.42
2022-12-03T17:57:29.951Z,86.08
2022-12-03T17:59:57.012Z,86.18
2022-12-03T18:02:23.824Z,86.56
2022-12-03T18:04:50.323Z,85.99
2022-12-03T18:07:16.688Z,86.04
2022-12-03T18:09:43.220Z,85.81
2022-12-03T18:12:09.682Z,85.61
2022-12-03T18:14:36.429Z,85.89
2022-12-03T18:17:03.261Z,86.12
2022-12-03T18:19:29.762Z,85.74
2022-12-03T18:21:56.242Z,85.31
2022-12-03T18:24:22.984Z,85.75
2022-12-03T18:26:50.224Z,85.93
2022-12-03T18:29:16.726Z,85.75
2022-12-03T18:31:43.184Z,85.75
2022-12-03T18:34:09.685Z,85.73
2022-12-03T18:36:36.651Z,85.96
2022-12-03T18:39:05.943Z,86.04
2022-12-03T18:41:33.268Z,85.66
2022-12-03T18:44:03.198Z,86.12
2022-12-03T18:49:17.549Z,86.02
2022-12-03T18:51:44.086Z,85.20
2022-12-03T18:54:13.769Z,86.00
2022-12-03T18:56:43.167Z,86.09
2022-12-03T18:59:09.678Z,86.81
2022-12-03T19:01:36.489Z,86.66
2022-12-03T19:04:03.861Z,86.87
2022-12-03T19:06:30.665Z,86.93
2022-12-03T19:08:57.694Z,86.46
2022-12-03T19:11:24.280Z,86.89
2022-12-03T19:13:51.346Z,86.40
2022-12-03T19:16:17.931Z,86.00
2022-12-03T19:18:44.909Z,86.03
2022-12-03T19:21:16.045Z,85.92
2022-12-03T19:24:04.287Z,85.96
2022-12-03T19:26:30.150Z,86.80
2022-12-03T19:28:56.698Z,86.20
2022-12-03T19:31:23.264Z,86.49
2022-12-03T19:33:50.674Z,87.11
2022-12-03T19:36:26.784Z,86.65
2022-12-03T19:38:57.299Z,86.79
2022-12-03T19:41:30.317Z,87.20
2022-12-03T19:43:57.880Z,87.24
2022-12-03T19:46:28.558Z,87.49
2022-12-03T19:48:54.995Z,87.19
2022-12-03T19:51:36.744Z,87.57
2022-12-03T19:54:05.851Z,87.56
2022-12-03T19:56:32.665Z,87.86
2022-12-03T19:58:59.289Z,87.21
2022-12-03T20:01:29.011Z,87.57
2022-12-03T20:03:57.650Z,87.59
2022-12-03T20:06:29.122Z,87.92
2022-12-03T20:08:57.510Z,88.06
2022-12-03T20:11:27.052Z,88.47
2022-12-03T20:13:56.660Z,88.24
2022-12-03T20:16:24.361Z,88.12
2022-12-03T20:18:55.220Z,87.99
2022-12-03T20:21:21.669Z,87.99
2022-12-03T20:23:48.265Z,88.35
2022-12-03T20:26:17.944Z,87.86
2022-12-03T20:28:45.432Z,87.62
2022-12-03T20:31:15.255Z,88.17
2022-12-03T20:33:44.852Z,88.15
2022-12-03T20:36:14.162Z,88.59
2022-12-03T20:38:41.015Z,89.06
2022-12-03T20:41:11.241Z,88.30
2022-12-03T20:43:38.367Z,88.63
2022-12-03T20:46:09.913Z,88.85
2022-12-03T20:48:36.968Z,88.80
2022-12-03T20:51:08.574Z,88.42
2022-12-03T20:53:35.772Z,88.33
2022-12-03T20:56:03.531Z,88.77
2022-12-03T20:58:31.225Z,88.49
2022-12-03T21:01:26.601Z,88.78
2022-12-03T21:03:55.177Z,88.70
2022-12-03T21:06:22.473Z,88.85
2022-12-03T21:08:49.336Z,89.34
2022-12-03T21:11:18.732Z,88.87
2022-12-03T21:13:46.361Z,88.81
2022-12-03T21:16:15.926Z,89.29
2022-12-03T21:18:42.789Z,89.38
2022-12-03T21:21:12.098Z,89.42
2022-12-03T21:23:38.639Z,90.16
2022-12-03T21:26:21.891Z,89.67
2022-12-03T21:28:50.622Z,90.32
2022-12-03T21:31:25.721Z,90.17
2022-12-03T21:33:56.390Z,90.51
2022-12-03T21:36:23.980Z,90.91
2022-12-03T21:38:50.697Z,90.51
2022-12-03T21:41:17.822Z,90.43
2022-12-03T21:43:44.828Z,90.76
2022-12-03T21:47:12.826Z,90.03
2022-12-03T21:49:02.603Z,90.43
2022-12-03T21:51:29.584Z,90.50
2022-12-03T21:53:56.057Z,89.83
2022-12-03T21:56:22.487Z,90.17
2022-12-03T21:58:48.935Z,90.01
2022-12-03T22:01:19.367Z,90.24
2022-12-03T22:03:46.120Z,90.44
2022-12-03T22:06:13.351Z,90.34
2022-12-03T22:08:40.123Z,90.14
2022-12-03T22:11:18.952Z,90.14
2022-12-03T22:13:45.919Z,90.43
2022-12-03T22:16:14.791Z,90.71
2022-12-03T22:18:41.489Z,90.45
2022-12-03T22:21:13.723Z,90.51
2022-12-03T22:23:40.671Z,90.11
2022-12-03T22:26:11.792Z,89.85
2022-12-03T22:28:38.439Z,89.80
2022-12-03T22:31:06.947Z,89.59
2022-12-03T22:33:34.527Z,89.80
2022-12-03T22:36:04.396Z,89.81
2022-12-03T22:38:31.979Z,89.92
2022-12-03T22:40:59.459Z,89.77
2022-12-03T22:43:26.066Z,89.17
2022-12-03T22:45:54.684Z,89.82
2022-12-03T22:48:22.614Z,89.52
2022-12-03T22:50:50.763Z,89.96
2022-12-03T22:53:17.842Z,90.04
2022-12-03T22:55:44.624Z,89.99
2022-12-03T22:58:11.507Z,90.38
2022-12-03T23:00:40.773Z,90.44
2022-12-03T23:03:08.112Z,90.29
2022-12-03T23:05:39.230Z,90.64
2022-12-03T23:08:08.787Z,90.54
2022-12-03T23:10:38.571Z,90.52
2022-12-03T23:13:06.424Z,90.37
2022-12-03T23:15:33.317Z,91.06
2022-12-03T23:18:00.234Z,89.94
2022-12-03T23:20:26.785Z,90.45
2022-12-03T23:22:55.124Z,90.68
2022-12-03T23:25:22.239Z,90.75
2022-12-03T23:27:48.722Z,91.07
2022-12-03T23:30:16.712Z,90.72
2022-12-03T23:32:44.307Z,90.55
2022-12-03T23:35:13.145Z,91.08
2022-12-03T23:37:43.336Z,91.04
2022-12-03T23:40:11.067Z,91.61
2022-12-03T23:42:37.643Z,91.55
2022-12-03T23:45:04.840Z,91.47
2022-12-03T23:47:31.436Z,91.80
2022-12-03T23:49:57.934Z,92.47
2022-12-03T23:52:24.507Z,92.99
2022-12-03T23:54:51.023Z,92.93
2022-12-03T23:57:18.240Z,93.01
2022-12-03T23:59:44.696Z,93.20
